sensor_id;sensor_type;location;lat;lon;timestamp;temperature;humidity
71142;DHT22;58808;59.366;17.970;2023-02-01T00:02:02;-1.20;99.90
71142;DHT22;58808;59.366;17.970;2023-02-01T00:04:28;-1.20;99.90
71142;DHT22;58808;59.366;17.970;2023-02-01T00:06:54;-1.20;99.90
71142;DHT22;58808;59.366;17.970;2023-02-01T00:09:19;-1.30;99.90
71142;DHT22;58808;59.366;17.970;2023-02-01T00:11:45;-1.30;99.90
71142;DHT22;58808;59.366;17.970;2023-02-01T00:14:12;-1.30;99.90
71142;DHT22;58808;59.366;17.970;2023-02-01T00:16:37;-1.40;99.90
71142;DHT22;58808;59.366;17.970;2023-02-01T00:19:07;-1.30;99.90
71142;DHT22;58808;59.366;17.970;2023-02-01T00:21:35;-1.30;99.90
71142;DHT22;58808;59.366;17.970;2023-02-01T00:24:00;-1.20;99.90
71142;DHT22;58808;59.366;17.970;2023-02-01T00:26:40;-1.20;99.90
71142;DHT22;58808;59.366;17.970;2023-02-01T00:29:13;-1.10;99.90
71142;DHT22;58808;59.366;17.970;2023-02-01T00:31:40;-1.10;99.90
71142;DHT22;58808;59.366;17.970;2023-02-01T00:34:06;-1.10;99.90
71142;DHT22;58808;59.366;17.970;2023-02-01T00:36:32;-1.00;99.90
71142;DHT22;58808;59.366;17.970;2023-02-01T00:38:58;-1.00;99.90
71142;DHT22;58808;59.366;17.970;2023-02-01T00:41:23;-1.00;99.90
71142;DHT22;58808;59.366;17.970;2023-02-01T00:43:50;-1.00;99.90
71142;DHT22;58808;59.366;17.970;2023-02-01T00:46:17;-1.00;99.90
71142;DHT22;58808;59.366;17.970;2023-02-01T00:48:44;-0.90;99.90
71142;DHT22;58808;59.366;17.970;2023-02-01T00:51:13;-0.90;99.90
71142;DHT22;58808;59.366;17.970;2023-02-01T00:53:39;-0.90;99.90
71142;DHT22;58808;59.366;17.970;2023-02-01T00:56:06;-0.80;99.90
71142;DHT22;58808;59.366;17.970;2023-02-01T00:58:32;-0.90;99.90
71142;DHT22;58808;59.366;17.970;2023-02-01T01:01:17;-0.90;99.90
71142;DHT22;58808;59.366;17.970;2023-02-01T01:03:56;-0.90;99.90
71142;DHT22;58808;59.366;17.970;2023-02-01T01:06:31;-0.90;99.90
71142;DHT22;58808;59.366;17.970;2023-02-01T01:08:59;-0.90;99.90
71142;DHT22;58808;59.366;17.970;2023-02-01T01:11:27;-0.90;99.90
71142;DHT22;58808;59.366;17.970;2023-02-01T01:13:55;-1.00;99.90
71142;DHT22;58808;59.366;17.970;2023-02-01T01:16:22;-1.00;99.90
71142;DHT22;58808;59.366;17.970;2023-02-01T01:18:49;-1.00;99.90
71142;DHT22;58808;59.366;17.970;2023-02-01T01:21:16;-1.00;99.90
71142;DHT22;58808;59.366;17.970;2023-02-01T01:23:42;-1.00;99.90
71142;DHT22;58808;59.366;17.970;2023-02-01T01:26:12;-1.00;99.90
71142;DHT22;58808;59.366;17.970;2023-02-01T01:28:38;-0.90;99.90
71142;DHT22;58808;59.366;17.970;2023-02-01T01:31:08;-0.80;99.90
71142;DHT22;58808;59.366;17.970;2023-02-01T01:33:33;-0.80;99.90
71142;DHT22;58808;59.366;17.970;2023-02-01T01:35:59;-0.70;99.90
71142;DHT22;58808;59.366;17.970;2023-02-01T01:38:25;-0.70;99.90
71142;DHT22;58808;59.366;17.970;2023-02-01T01:40:51;-0.70;99.90
71142;DHT22;58808;59.366;17.970;2023-02-01T01:43:18;-0.70;99.90
71142;DHT22;58808;59.366;17.970;2023-02-01T01:45:48;-0.80;99.90
71142;DHT22;58808;59.366;17.970;2023-02-01T01:48:25;-0.80;99.90
71142;DHT22;58808;59.366;17.970;2023-02-01T01:51:06;-0.80;99.90
71142;DHT22;58808;59.366;17.970;2023-02-01T01:53:42;-0.80;99.90
71142;DHT22;58808;59.366;17.970;2023-02-01T01:56:09;-0.80;99.90
71142;DHT22;58808;59.366;17.970;2023-02-01T01:58:35;-0.80;99.90
71142;DHT22;58808;59.366;17.970;2023-02-01T02:01:02;-0.80;99.90
71142;DHT22;58808;59.366;17.970;2023-02-01T02:03:35;-0.70;99.90
71142;DHT22;58808;59.366;17.970;2023-02-01T02:06:03;-0.70;99.90
71142;DHT22;58808;59.366;17.970;2023-02-01T02:08:33;-0.70;99.90
71142;DHT22;58808;59.366;17.970;2023-02-01T02:10:59;-0.70;99.90
71142;DHT22;58808;59.366;17.970;2023-02-01T02:16:13;-0.70;99.90
71142;DHT22;58808;59.366;17.970;2023-02-01T02:24:34;-0.70;99.90
71142;DHT22;58808;59.366;17.970;2023-02-01T02:35:59;-0.60;99.90
71142;DHT22;58808;59.366;17.970;2023-02-01T02:44:53;-0.70;99.90
71142;DHT22;58808;59.366;17.970;2023-02-01T02:50:22;-0.70;99.90
71142;DHT22;58808;59.366;17.970;2023-02-01T02:54:15;-0.80;99.90
71142;DHT22;58808;59.366;17.970;2023-02-01T02:56:28;-0.70;99.90
71142;DHT22;58808;59.366;17.970;2023-02-01T02:59:17;-0.80;99.90
71142;DHT22;58808;59.366;17.970;2023-02-01T03:02:04;-0.70;99.90
71142;DHT22;58808;59.366;17.970;2023-02-01T03:04:53;-0.80;99.90
71142;DHT22;58808;59.366;17.970;2023-02-01T03:26:45;-0.70;99.90
71142;DHT22;58808;59.366;17.970;2023-02-01T03:29:21;-0.60;99.90
71142;DHT22;58808;59.366;17.970;2023-02-01T03:31:47;-0.60;99.90
71142;DHT22;58808;59.366;17.970;2023-02-01T03:34:13;-0.60;99.90
71142;DHT22;58808;59.366;17.970;2023-02-01T03:37:04;-0.60;99.90
71142;DHT22;58808;59.366;17.970;2023-02-01T03:39:38;-0.50;99.90
71142;DHT22;58808;59.366;17.970;2023-02-01T03:42:11;-0.50;99.90
71142;DHT22;58808;59.366;17.970;2023-02-01T03:44:49;-0.60;99.90
71142;DHT22;58808;59.366;17.970;2023-02-01T03:47:25;-0.50;99.90
71142;DHT22;58808;59.366;17.970;2023-02-01T03:50:04;-0.60;99.90
71142;DHT22;58808;59.366;17.970;2023-02-01T03:52:33;-0.50;99.90
71142;DHT22;58808;59.366;17.970;2023-02-01T03:55:03;-0.50;99.90
71142;DHT22;58808;59.366;17.970;2023-02-01T03:57:34;-0.50;99.90
71142;DHT22;58808;59.366;17.970;2023-02-01T04:00:15;-0.60;99.90
71142;DHT22;58808;59.366;17.970;2023-02-01T04:02:42;-0.60;99.90
71142;DHT22;58808;59.366;17.970;2023-02-01T04:05:08;-0.50;99.90
71142;DHT22;58808;59.366;17.970;2023-02-01T04:07:34;-0.50;99.90
71142;DHT22;58808;59.366;17.970;2023-02-01T04:09:59;-0.60;99.90
71142;DHT22;58808;59.366;17.970;2023-02-01T04:12:25;-0.60;99.90
71142;DHT22;58808;59.366;17.970;2023-02-01T04:14:51;-0.50;99.90
71142;DHT22;58808;59.366;17.970;2023-02-01T04:17:16;-0.60;99.90
71142;DHT22;58808;59.366;17.970;2023-02-01T04:19:42;-0.60;99.90
71142;DHT22;58808;59.366;17.970;2023-02-01T04:22:08;-0.50;99.90
71142;DHT22;58808;59.366;17.970;2023-02-01T04:24:33;-0.60;99.90
71142;DHT22;58808;59.366;17.970;2023-02-01T04:26:59;-0.60;99.90
71142;DHT22;58808;59.366;17.970;2023-02-01T04:29:25;-0.60;99.90
71142;DHT22;58808;59.366;17.970;2023-02-01T04:31:50;-0.50;99.90
71142;DHT22;58808;59.366;17.970;2023-02-01T04:34:16;-0.50;99.90
71142;DHT22;58808;59.366;17.970;2023-02-01T04:36:42;-0.50;99.90
71142;DHT22;58808;59.366;17.970;2023-02-01T04:39:09;-0.50;99.90
71142;DHT22;58808;59.366;17.970;2023-02-01T04:41:35;-0.50;99.90
71142;DHT22;58808;59.366;17.970;2023-02-01T04:44:01;-0.50;99.90
71142;DHT22;58808;59.366;17.970;2023-02-01T04:46:27;-0.50;99.90
71142;DHT22;58808;59.366;17.970;2023-02-01T04:48:52;-0.50;99.90
71142;DHT22;58808;59.366;17.970;2023-02-01T04:51:18;-0.50;99.90
71142;DHT22;58808;59.366;17.970;2023-02-01T04:53:44;-0.50;99.90
71142;DHT22;58808;59.366;17.970;2023-02-01T04:56:10;-0.40;99.90
71142;DHT22;58808;59.366;17.970;2023-02-01T04:58:36;-0.40;99.90
71142;DHT22;58808;59.366;17.970;2023-02-01T05:01:03;-0.40;99.90
71142;DHT22;58808;59.366;17.970;2023-02-01T05:03:33;-0.40;99.90
71142;DHT22;58808;59.366;17.970;2023-02-01T05:05:59;-0.40;99.90
71142;DHT22;58808;59.366;17.970;2023-02-01T05:08:25;-0.40;99.90
71142;DHT22;58808;59.366;17.970;2023-02-01T05:10:52;-0.40;99.90
71142;DHT22;58808;59.366;17.970;2023-02-01T05:13:18;-0.40;99.90
71142;DHT22;58808;59.366;17.970;2023-02-01T05:16:02;-0.40;99.90
71142;DHT22;58808;59.366;17.970;2023-02-01T05:18:28;-0.40;99.90
71142;DHT22;58808;59.366;17.970;2023-02-01T05:20:54;-0.40;99.90
71142;DHT22;58808;59.366;17.970;2023-02-01T05:23:19;-0.40;99.90
71142;DHT22;58808;59.366;17.970;2023-02-01T05:25:45;-0.30;99.90
71142;DHT22;58808;59.366;17.970;2023-02-01T05:28:11;-0.40;99.90
71142;DHT22;58808;59.366;17.970;2023-02-01T05:30:37;-0.40;99.90
71142;DHT22;58808;59.366;17.970;2023-02-01T05:33:03;-0.40;99.90
71142;DHT22;58808;59.366;17.970;2023-02-01T05:35:29;-0.30;99.90
71142;DHT22;58808;59.366;17.970;2023-02-01T05:37:55;-0.30;99.90
71142;DHT22;58808;59.366;17.970;2023-02-01T05:40:21;-0.30;99.90
71142;DHT22;58808;59.366;17.970;2023-02-01T05:42:46;-0.30;99.90
71142;DHT22;58808;59.366;17.970;2023-02-01T05:45:12;-0.30;99.90
71142;DHT22;58808;59.366;17.970;2023-02-01T05:47:38;-0.30;99.90
71142;DHT22;58808;59.366;17.970;2023-02-01T05:50:05;-0.20;99.90
71142;DHT22;58808;59.366;17.970;2023-02-01T05:52:31;-0.20;99.90
71142;DHT22;58808;59.366;17.970;2023-02-01T05:54:56;-0.30;99.90
71142;DHT22;58808;59.366;17.970;2023-02-01T05:57:22;-0.30;99.90
71142;DHT22;58808;59.366;17.970;2023-02-01T05:59:48;-0.30;99.90
71142;DHT22;58808;59.366;17.970;2023-02-01T06:02:15;-0.30;99.90
71142;DHT22;58808;59.366;17.970;2023-02-01T06:04:41;-0.30;99.90
71142;DHT22;58808;59.366;17.970;2023-02-01T06:07:08;-0.20;99.90
71142;DHT22;58808;59.366;17.970;2023-02-01T06:09:36;-0.20;99.90
71142;DHT22;58808;59.366;17.970;2023-02-01T06:12:03;-0.20;99.90
71142;DHT22;58808;59.366;17.970;2023-02-01T06:14:28;-0.20;99.90
71142;DHT22;58808;59.366;17.970;2023-02-01T06:16:54;-0.10;99.90
71142;DHT22;58808;59.366;17.970;2023-02-01T06:19:21;-0.10;99.90
71142;DHT22;58808;59.366;17.970;2023-02-01T06:21:47;-0.10;99.90
71142;DHT22;58808;59.366;17.970;2023-02-01T06:24:13;-0.10;99.90
71142;DHT22;58808;59.366;17.970;2023-02-01T06:26:39;-0.10;99.90
71142;DHT22;58808;59.366;17.970;2023-02-01T06:29:06;-0.10;99.90
71142;DHT22;58808;59.366;17.970;2023-02-01T06:31:32;-0.30;99.90
71142;DHT22;58808;59.366;17.970;2023-02-01T06:33:58;-0.40;99.90
71142;DHT22;58808;59.366;17.970;2023-02-01T06:36:24;-0.50;99.90
71142;DHT22;58808;59.366;17.970;2023-02-01T06:38:50;-0.50;99.90
71142;DHT22;58808;59.366;17.970;2023-02-01T06:41:16;-0.60;99.90
71142;DHT22;58808;59.366;17.970;2023-02-01T06:43:42;-0.60;99.90
71142;DHT22;58808;59.366;17.970;2023-02-01T06:46:12;-0.60;99.90
71142;DHT22;58808;59.366;17.970;2023-02-01T06:48:39;-0.60;99.90
71142;DHT22;58808;59.366;17.970;2023-02-01T06:51:05;-0.70;99.90
71142;DHT22;58808;59.366;17.970;2023-02-01T06:53:31;-0.70;99.90
71142;DHT22;58808;59.366;17.970;2023-02-01T06:56:02;-0.60;99.90
71142;DHT22;58808;59.366;17.970;2023-02-01T06:58:32;-0.60;99.90
71142;DHT22;58808;59.366;17.970;2023-02-01T07:01:04;-0.60;99.90
71142;DHT22;58808;59.366;17.970;2023-02-01T07:03:30;-0.50;99.90
71142;DHT22;58808;59.366;17.970;2023-02-01T07:05:56;-0.60;99.90
71142;DHT22;58808;59.366;17.970;2023-02-01T07:08:30;-0.60;99.90
71142;DHT22;58808;59.366;17.970;2023-02-01T07:10:56;-0.60;99.90
71142;DHT22;58808;59.366;17.970;2023-02-01T07:13:22;-0.50;99.90
71142;DHT22;58808;59.366;17.970;2023-02-01T07:15:48;-0.50;99.90
71142;DHT22;58808;59.366;17.970;2023-02-01T07:18:14;-0.50;99.90
71142;DHT22;58808;59.366;17.970;2023-02-01T07:20:41;-0.50;99.90
71142;DHT22;58808;59.366;17.970;2023-02-01T07:23:09;-0.40;99.90
71142;DHT22;58808;59.366;17.970;2023-02-01T07:25:35;-0.40;99.90
71142;DHT22;58808;59.366;17.970;2023-02-01T07:28:02;-0.40;99.90
71142;DHT22;58808;59.366;17.970;2023-02-01T07:30:27;-0.30;99.90
71142;DHT22;58808;59.366;17.970;2023-02-01T07:32:53;-0.30;99.90
71142;DHT22;58808;59.366;17.970;2023-02-01T07:35:19;-0.20;99.90
71142;DHT22;58808;59.366;17.970;2023-02-01T07:37:44;-0.20;99.90
71142;DHT22;58808;59.366;17.970;2023-02-01T07:40:11;-0.20;99.90
71142;DHT22;58808;59.366;17.970;2023-02-01T07:42:37;-0.20;99.90
71142;DHT22;58808;59.366;17.970;2023-02-01T07:45:03;-0.20;99.90
71142;DHT22;58808;59.366;17.970;2023-02-01T07:47:29;-0.10;99.90
71142;DHT22;58808;59.366;17.970;2023-02-01T07:49:54;-0.10;99.90
71142;DHT22;58808;59.366;17.970;2023-02-01T07:52:20;-0.10;99.90
71142;DHT22;58808;59.366;17.970;2023-02-01T07:54:46;-0.10;99.90
71142;DHT22;58808;59.366;17.970;2023-02-01T07:57:11;0.00;99.90
71142;DHT22;58808;59.366;17.970;2023-02-01T07:59:38;0.00;99.90
71142;DHT22;58808;59.366;17.970;2023-02-01T08:02:27;0.00;99.90
71142;DHT22;58808;59.366;17.970;2023-02-01T08:04:53;0.00;99.90
71142;DHT22;58808;59.366;17.970;2023-02-01T08:07:18;0.10;99.90
71142;DHT22;58808;59.366;17.970;2023-02-01T08:09:44;0.10;99.90
71142;DHT22;58808;59.366;17.970;2023-02-01T08:12:10;0.10;99.90
71142;DHT22;58808;59.366;17.970;2023-02-01T08:14:35;0.10;99.90
71142;DHT22;58808;59.366;17.970;2023-02-01T08:17:01;0.10;99.90
71142;DHT22;58808;59.366;17.970;2023-02-01T08:19:27;0.20;99.90
71142;DHT22;58808;59.366;17.970;2023-02-01T08:21:52;0.20;99.90
71142;DHT22;58808;59.366;17.970;2023-02-01T08:24:18;0.20;99.90
71142;DHT22;58808;59.366;17.970;2023-02-01T08:26:44;0.20;99.90
71142;DHT22;58808;59.366;17.970;2023-02-01T08:29:10;0.30;99.90
71142;DHT22;58808;59.366;17.970;2023-02-01T08:31:37;0.20;99.90
71142;DHT22;58808;59.366;17.970;2023-02-01T08:34:05;0.30;99.90
71142;DHT22;58808;59.366;17.970;2023-02-01T08:36:34;0.30;99.90
71142;DHT22;58808;59.366;17.970;2023-02-01T08:39:00;0.30;99.90
71142;DHT22;58808;59.366;17.970;2023-02-01T08:41:28;0.30;99.90
71142;DHT22;58808;59.366;17.970;2023-02-01T08:43:55;0.30;99.90
71142;DHT22;58808;59.366;17.970;2023-02-01T08:46:22;0.30;99.90
71142;DHT22;58808;59.366;17.970;2023-02-01T08:48:48;0.30;99.90
71142;DHT22;58808;59.366;17.970;2023-02-01T08:51:16;0.30;99.90
71142;DHT22;58808;59.366;17.970;2023-02-01T08:53:42;0.30;99.90
71142;DHT22;58808;59.366;17.970;2023-02-01T08:56:10;0.30;99.90
71142;DHT22;58808;59.366;17.970;2023-02-01T08:58:36;0.30;99.90
71142;DHT22;58808;59.366;17.970;2023-02-01T09:01:07;0.40;99.90
71142;DHT22;58808;59.366;17.970;2023-02-01T09:03:33;0.40;99.90
71142;DHT22;58808;59.366;17.970;2023-02-01T09:06:03;0.40;99.90
71142;DHT22;58808;59.366;17.970;2023-02-01T09:08:29;0.40;99.90
71142;DHT22;58808;59.366;17.970;2023-02-01T09:11:03;0.40;99.90
71142;DHT22;58808;59.366;17.970;2023-02-01T09:13:29;0.40;99.90
71142;DHT22;58808;59.366;17.970;2023-02-01T09:15:55;0.40;99.90
71142;DHT22;58808;59.366;17.970;2023-02-01T09:18:20;0.40;99.90
71142;DHT22;58808;59.366;17.970;2023-02-01T09:20:46;0.40;99.90
71142;DHT22;58808;59.366;17.970;2023-02-01T09:23:12;0.40;99.90
71142;DHT22;58808;59.366;17.970;2023-02-01T09:25:38;0.40;99.90
71142;DHT22;58808;59.366;17.970;2023-02-01T09:28:04;0.50;99.90
71142;DHT22;58808;59.366;17.970;2023-02-01T09:30:35;0.40;99.90
71142;DHT22;58808;59.366;17.970;2023-02-01T09:33:02;0.50;99.90
71142;DHT22;58808;59.366;17.970;2023-02-01T09:35:27;0.50;99.90
71142;DHT22;58808;59.366;17.970;2023-02-01T09:37:54;0.50;99.90
71142;DHT22;58808;59.366;17.970;2023-02-01T09:40:20;0.60;99.90
71142;DHT22;58808;59.366;17.970;2023-02-01T09:46:16;0.50;99.90
71142;DHT22;58808;59.366;17.970;2023-02-01T09:48:45;0.60;99.90
71142;DHT22;58808;59.366;17.970;2023-02-01T09:51:16;0.60;99.90
71142;DHT22;58808;59.366;17.970;2023-02-01T09:53:48;0.60;99.90
71142;DHT22;58808;59.366;17.970;2023-02-01T09:56:21;0.60;99.90
71142;DHT22;58808;59.366;17.970;2023-02-01T09:59:01;0.60;99.90
71142;DHT22;58808;59.366;17.970;2023-02-01T10:01:27;0.60;99.90
71142;DHT22;58808;59.366;17.970;2023-02-01T10:04:07;0.60;99.90
71142;DHT22;58808;59.366;17.970;2023-02-01T10:14:41;0.70;99.90
71142;DHT22;58808;59.366;17.970;2023-02-01T10:25:26;0.80;99.90
71142;DHT22;58808;59.366;17.970;2023-02-01T10:27:52;0.90;99.90
71142;DHT22;58808;59.366;17.970;2023-02-01T10:30:24;0.90;99.90
71142;DHT22;58808;59.366;17.970;2023-02-01T10:35:44;0.90;99.90
71142;DHT22;58808;59.366;17.970;2023-02-01T10:38:27;0.90;99.90
71142;DHT22;58808;59.366;17.970;2023-02-01T10:43:53;0.90;99.90
71142;DHT22;58808;59.366;17.970;2023-02-01T10:46:20;0.90;99.90
71142;DHT22;58808;59.366;17.970;2023-02-01T10:48:47;0.90;99.90
71142;DHT22;58808;59.366;17.970;2023-02-01T10:51:24;0.80;99.90
71142;DHT22;58808;59.366;17.970;2023-02-01T10:54:21;0.80;99.90
71142;DHT22;58808;59.366;17.970;2023-02-01T10:56:49;0.80;99.90
71142;DHT22;58808;59.366;17.970;2023-02-01T10:59:21;0.80;99.90
71142;DHT22;58808;59.366;17.970;2023-02-01T11:01:49;0.80;99.90
71142;DHT22;58808;59.366;17.970;2023-02-01T11:04:20;0.80;99.90
71142;DHT22;58808;59.366;17.970;2023-02-01T11:07:15;0.70;99.90
71142;DHT22;58808;59.366;17.970;2023-02-01T11:09:39;0.80;99.90
71142;DHT22;58808;59.366;17.970;2023-02-01T11:12:10;0.80;99.90
71142;DHT22;58808;59.366;17.970;2023-02-01T11:14:47;0.80;99.90
71142;DHT22;58808;59.366;17.970;2023-02-01T11:17:26;0.80;99.90
71142;DHT22;58808;59.366;17.970;2023-02-01T11:20:04;0.80;99.90
71142;DHT22;58808;59.366;17.970;2023-02-01T11:22:31;0.80;99.90
71142;DHT22;58808;59.366;17.970;2023-02-01T11:24:58;0.70;99.90
71142;DHT22;58808;59.366;17.970;2023-02-01T11:27:25;0.80;99.90
71142;DHT22;58808;59.366;17.970;2023-02-01T11:29:54;0.80;99.90
71142;DHT22;58808;59.366;17.970;2023-02-01T11:32:23;0.80;99.90
71142;DHT22;58808;59.366;17.970;2023-02-01T11:35:04;0.80;99.90
71142;DHT22;58808;59.366;17.970;2023-02-01T11:37:40;0.80;99.90
71142;DHT22;58808;59.366;17.970;2023-02-01T11:42:57;0.90;99.90
71142;DHT22;58808;59.366;17.970;2023-02-01T11:45:30;0.90;99.90
71142;DHT22;58808;59.366;17.970;2023-02-01T11:47:58;0.90;99.90
71142;DHT22;58808;59.366;17.970;2023-02-01T11:50:44;0.90;99.90
71142;DHT22;58808;59.366;17.970;2023-02-01T12:14:56;1.00;99.90
71142;DHT22;58808;59.366;17.970;2023-02-01T12:21:04;1.10;99.90
71142;DHT22;58808;59.366;17.970;2023-02-01T12:28:58;1.00;99.90
71142;DHT22;58808;59.366;17.970;2023-02-01T12:45:56;1.00;99.90
71142;DHT22;58808;59.366;17.970;2023-02-01T12:48:38;1.00;99.90
71142;DHT22;58808;59.366;17.970;2023-02-01T12:51:23;1.10;99.90
71142;DHT22;58808;59.366;17.970;2023-02-01T12:53:57;1.10;99.90
71142;DHT22;58808;59.366;17.970;2023-02-01T12:56:40;1.10;99.90
71142;DHT22;58808;59.366;17.970;2023-02-01T12:59:36;1.20;99.90
71142;DHT22;58808;59.366;17.970;2023-02-01T13:07:43;1.20;99.90
71142;DHT22;58808;59.366;17.970;2023-02-01T13:15:43;1.20;99.90
71142;DHT22;58808;59.366;17.970;2023-02-01T13:18:14;1.20;99.90
71142;DHT22;58808;59.366;17.970;2023-02-01T13:21:10;1.20;99.90
71142;DHT22;58808;59.366;17.970;2023-02-01T13:23:39;1.20;99.90
71142;DHT22;58808;59.366;17.970;2023-02-01T13:26:06;1.10;99.90
71142;DHT22;58808;59.366;17.970;2023-02-01T13:29:10;1.10;99.90
71142;DHT22;58808;59.366;17.970;2023-02-01T13:37:48;1.00;99.90
71142;DHT22;58808;59.366;17.970;2023-02-01T13:42:58;1.00;99.90
71142;DHT22;58808;59.366;17.970;2023-02-01T13:45:27;1.00;99.90
71142;DHT22;58808;59.366;17.970;2023-02-01T13:47:59;1.00;99.90
71142;DHT22;58808;59.366;17.970;2023-02-01T13:50:37;1.00;99.90
71142;DHT22;58808;59.366;17.970;2023-02-01T13:55:45;1.00;99.90
71142;DHT22;58808;59.366;17.970;2023-02-01T13:58:31;1.00;99.90
71142;DHT22;58808;59.366;17.970;2023-02-01T14:01:33;1.00;99.90
71142;DHT22;58808;59.366;17.970;2023-02-01T14:04:02;1.00;99.90
71142;DHT22;58808;59.366;17.970;2023-02-01T14:09:18;0.90;99.90
71142;DHT22;58808;59.366;17.970;2023-02-01T14:16:42;0.90;99.90
71142;DHT22;58808;59.366;17.970;2023-02-01T14:19:23;0.90;99.90
71142;DHT22;58808;59.366;17.970;2023-02-01T14:24:30;0.80;99.90
71142;DHT22;58808;59.366;17.970;2023-02-01T14:26:59;0.80;99.90
71142;DHT22;58808;59.366;17.970;2023-02-01T14:29:37;0.80;99.90
71142;DHT22;58808;59.366;17.970;2023-02-01T14:32:17;0.70;99.90
71142;DHT22;58808;59.366;17.970;2023-02-01T14:50:32;0.60;99.90
71142;DHT22;58808;59.366;17.970;2023-02-01T14:53:20;0.50;99.90
71142;DHT22;58808;59.366;17.970;2023-02-01T15:08:56;0.40;99.90
71142;DHT22;58808;59.366;17.970;2023-02-01T15:11:22;0.40;99.90
71142;DHT22;58808;59.366;17.970;2023-02-01T15:13:50;0.40;99.90
71142;DHT22;58808;59.366;17.970;2023-02-01T15:16:17;0.40;99.90
71142;DHT22;58808;59.366;17.970;2023-02-01T15:18:42;0.40;99.90
71142;DHT22;58808;59.366;17.970;2023-02-01T15:21:42;0.50;99.90
71142;DHT22;58808;59.366;17.970;2023-02-01T15:24:22;0.50;99.90
71142;DHT22;58808;59.366;17.970;2023-02-01T15:26:49;0.50;99.90
71142;DHT22;58808;59.366;17.970;2023-02-01T15:29:15;0.50;99.90
71142;DHT22;58808;59.366;17.970;2023-02-01T15:31:48;0.50;99.90
71142;DHT22;58808;59.366;17.970;2023-02-01T15:34:14;0.50;99.90
71142;DHT22;58808;59.366;17.970;2023-02-01T15:36:41;0.50;99.90
71142;DHT22;58808;59.366;17.970;2023-02-01T15:39:24;0.50;99.90
71142;DHT22;58808;59.366;17.970;2023-02-01T15:41:55;0.50;99.90
71142;DHT22;58808;59.366;17.970;2023-02-01T15:44:44;0.50;99.90
71142;DHT22;58808;59.366;17.970;2023-02-01T15:47:25;0.50;99.90
71142;DHT22;58808;59.366;17.970;2023-02-01T15:49:57;0.50;99.90
71142;DHT22;58808;59.366;17.970;2023-02-01T15:52:38;0.50;99.90
71142;DHT22;58808;59.366;17.970;2023-02-01T15:55:39;0.50;99.90
71142;DHT22;58808;59.366;17.970;2023-02-01T15:58:07;0.40;99.90
71142;DHT22;58808;59.366;17.970;2023-02-01T16:00:57;0.50;99.90
71142;DHT22;58808;59.366;17.970;2023-02-01T16:03:35;0.50;99.90
71142;DHT22;58808;59.366;17.970;2023-02-01T16:06:04;0.40;99.90
71142;DHT22;58808;59.366;17.970;2023-02-01T16:08:31;0.40;99.90
71142;DHT22;58808;59.366;17.970;2023-02-01T16:11:24;0.40;99.90
71142;DHT22;58808;59.366;17.970;2023-02-01T16:13:48;0.40;99.90
71142;DHT22;58808;59.366;17.970;2023-02-01T16:16:14;0.40;99.90
71142;DHT22;58808;59.366;17.970;2023-02-01T16:18:41;0.30;99.90
71142;DHT22;58808;59.366;17.970;2023-02-01T16:21:07;0.30;99.90
71142;DHT22;58808;59.366;17.970;2023-02-01T16:23:34;0.30;99.90
71142;DHT22;58808;59.366;17.970;2023-02-01T16:26:01;0.30;99.90
71142;DHT22;58808;59.366;17.970;2023-02-01T16:28:26;0.30;99.90
71142;DHT22;58808;59.366;17.970;2023-02-01T16:30:52;0.30;99.90
71142;DHT22;58808;59.366;17.970;2023-02-01T16:33:20;0.30;99.90
71142;DHT22;58808;59.366;17.970;2023-02-01T16:35:48;0.30;99.90
71142;DHT22;58808;59.366;17.970;2023-02-01T16:38:16;0.30;99.90
71142;DHT22;58808;59.366;17.970;2023-02-01T16:40:45;0.30;99.90
71142;DHT22;58808;59.366;17.970;2023-02-01T16:43:20;0.30;99.90
71142;DHT22;58808;59.366;17.970;2023-02-01T16:45:48;0.30;99.90
71142;DHT22;58808;59.366;17.970;2023-02-01T16:48:34;0.30;99.90
71142;DHT22;58808;59.366;17.970;2023-02-01T16:51:18;0.30;99.90
71142;DHT22;58808;59.366;17.970;2023-02-01T16:53:45;0.30;99.90
71142;DHT22;58808;59.366;17.970;2023-02-01T16:56:17;0.30;99.90
71142;DHT22;58808;59.366;17.970;2023-02-01T16:58:43;0.30;99.90
71142;DHT22;58808;59.366;17.970;2023-02-01T17:01:11;0.30;99.90
71142;DHT22;58808;59.366;17.970;2023-02-01T17:03:38;0.30;99.90
71142;DHT22;58808;59.366;17.970;2023-02-01T17:06:04;0.30;99.90
71142;DHT22;58808;59.366;17.970;2023-02-01T17:08:40;0.30;99.90
71142;DHT22;58808;59.366;17.970;2023-02-01T17:11:07;0.30;99.90
71142;DHT22;58808;59.366;17.970;2023-02-01T17:13:34;0.30;99.90
71142;DHT22;58808;59.366;17.970;2023-02-01T17:16:00;0.30;99.90
71142;DHT22;58808;59.366;17.970;2023-02-01T17:18:28;0.30;99.90
71142;DHT22;58808;59.366;17.970;2023-02-01T17:21:00;0.30;99.90
71142;DHT22;58808;59.366;17.970;2023-02-01T17:23:28;0.30;99.90
71142;DHT22;58808;59.366;17.970;2023-02-01T17:25:54;0.30;99.90
71142;DHT22;58808;59.366;17.970;2023-02-01T17:28:21;0.30;99.90
71142;DHT22;58808;59.366;17.970;2023-02-01T17:30:47;0.30;99.90
71142;DHT22;58808;59.366;17.970;2023-02-01T17:33:29;0.30;99.90
71142;DHT22;58808;59.366;17.970;2023-02-01T17:35:56;0.30;99.90
71142;DHT22;58808;59.366;17.970;2023-02-01T17:38:23;0.30;99.90
71142;DHT22;58808;59.366;17.970;2023-02-01T17:40:49;0.30;99.90
71142;DHT22;58808;59.366;17.970;2023-02-01T17:43:18;0.20;99.90
71142;DHT22;58808;59.366;17.970;2023-02-01T17:48:20;0.20;99.90
71142;DHT22;58808;59.366;17.970;2023-02-01T17:50:48;0.20;99.90
71142;DHT22;58808;59.366;17.970;2023-02-01T17:53:26;0.10;99.90
71142;DHT22;58808;59.366;17.970;2023-02-01T17:55:52;0.10;99.90
71142;DHT22;58808;59.366;17.970;2023-02-01T17:58:19;0.10;99.90
71142;DHT22;58808;59.366;17.970;2023-02-01T18:00:47;0.10;99.90
71142;DHT22;58808;59.366;17.970;2023-02-01T18:05:48;0.10;99.90
71142;DHT22;58808;59.366;17.970;2023-02-01T18:08:21;0.10;99.90
71142;DHT22;58808;59.366;17.970;2023-02-01T18:10:52;0.10;99.90
71142;DHT22;58808;59.366;17.970;2023-02-01T18:13:19;0.10;99.90
71142;DHT22;58808;59.366;17.970;2023-02-01T18:15:45;0.10;99.90
71142;DHT22;58808;59.366;17.970;2023-02-01T18:18:11;0.10;99.90
71142;DHT22;58808;59.366;17.970;2023-02-01T18:20:39;0.10;99.90
71142;DHT22;58808;59.366;17.970;2023-02-01T18:23:21;0.10;99.90
71142;DHT22;58808;59.366;17.970;2023-02-01T18:25:48;0.10;99.90
71142;DHT22;58808;59.366;17.970;2023-02-01T18:28:14;0.10;99.90
71142;DHT22;58808;59.366;17.970;2023-02-01T18:30:42;0.10;99.90
71142;DHT22;58808;59.366;17.970;2023-02-01T18:33:13;0.00;99.90
71142;DHT22;58808;59.366;17.970;2023-02-01T18:35:39;0.00;99.90
71142;DHT22;58808;59.366;17.970;2023-02-01T18:38:06;0.00;99.90
71142;DHT22;58808;59.366;17.970;2023-02-01T18:40:38;0.00;99.90
71142;DHT22;58808;59.366;17.970;2023-02-01T18:43:04;0.00;99.90
71142;DHT22;58808;59.366;17.970;2023-02-01T18:47:58;0.00;99.90
71142;DHT22;58808;59.366;17.970;2023-02-01T18:50:25;0.00;99.90
71142;DHT22;58808;59.366;17.970;2023-02-01T18:52:52;0.00;99.90